createdAt,value
2023-04-08T13:34:28.619Z,19.15
2023-04-08T13:36:56.432Z,20.21
2023-04-08T13:39:24.145Z,20.64
2023-04-08T13:41:52.919Z,20.66
2023-04-08T13:44:20.663Z,20.66
2023-04-08T13:46:48.388Z,20.24
2023-04-08T13:49:16.279Z,20.44
2023-04-08T13:51:43.668Z,20.84
2023-04-08T13:54:11.297Z,20.57
2023-04-08T13:56:38.613Z,20.81
2023-04-08T13:59:05.886Z,20.72
2023-04-08T14:01:33.481Z,20.91
2023-04-08T14:04:01.195Z,20.68
2023-04-08T14:06:28.521Z,20.52
2023-04-08T14:08:55.871Z,20.72
2023-04-08T14:11:23.252Z,20.19
2023-04-08T14:13:50.640Z,19.83
2023-04-08T14:16:18.112Z,19.98
2023-04-08T14:18:45.604Z,20.15
2023-04-08T14:21:15.029Z,19.97
2023-04-08T14:23:42.841Z,20.14
2023-04-08T14:26:10.477Z,20.30
2023-04-08T14:28:38.048Z,19.25
2023-04-08T14:31:06.390Z,18.89
2023-04-08T14:33:34.078Z,19.25
2023-04-08T14:36:01.515Z,19.14
2023-04-08T14:38:29.119Z,19.45
2023-04-08T14:40:56.538Z,20.16
2023-04-08T14:43:24.120Z,20.43
2023-04-08T14:45:52.303Z,19.29
2023-04-08T14:48:20.048Z,19.81
2023-04-08T14:50:47.823Z,19.19
2023-04-08T14:53:15.702Z,18.95
2023-04-08T14:55:46.047Z,19.61
2023-04-08T14:58:20.105Z,19.43
2023-04-08T15:00:48.059Z,18.71
2023-04-08T15:03:15.660Z,18.74
2023-04-08T15:05:56.190Z,19.29
2023-04-08T15:08:23.642Z,18.79
2023-04-08T15:10:51.351Z,18.44
2023-04-08T15:13:18.863Z,18.85
2023-04-08T15:15:46.489Z,18.88
2023-04-08T15:18:16.517Z,18.45
2023-04-08T15:20:43.907Z,18.46
2023-04-08T15:23:14.809Z,18.44
2023-04-08T15:25:49.183Z,18.03
2023-04-08T15:28:28.893Z,18.46
2023-04-08T15:30:56.596Z,18.00
2023-04-08T15:33:26.212Z,17.83
2023-04-08T15:35:56.576Z,18.22
2023-04-08T15:38:24.059Z,18.56
2023-04-08T15:40:53.829Z,18.74
2023-04-08T15:43:21.499Z,18.71
2023-04-08T15:45:49.009Z,18.80
2023-04-08T15:48:16.566Z,18.39
2023-04-08T15:50:46.708Z,18.46
2023-04-08T15:53:16.632Z,18.42
2023-04-08T15:55:44.146Z,18.38
2023-04-08T15:58:11.737Z,18.08
2023-04-08T16:00:39.350Z,17.97
2023-04-08T16:03:57.107Z,17.25
2023-04-08T16:06:24.647Z,16.96
2023-04-08T16:08:52.759Z,16.77
2023-04-08T16:11:21.650Z,16.61
2023-04-08T16:13:49.193Z,16.04
2023-04-08T16:16:16.775Z,15.57
2023-04-08T16:18:49.037Z,14.97
2023-04-08T16:21:17.564Z,15.01
2023-04-08T16:23:48.342Z,14.40
2023-04-08T16:26:15.711Z,14.31
2023-04-08T16:29:10.871Z,14.25
2023-04-08T16:31:47.973Z,14.14
2023-04-08T16:44:57.479Z,13.76
2023-04-08T16:47:30.133Z,13.80
2023-04-08T16:50:10.362Z,13.88
2023-04-08T16:52:54.732Z,13.60
2023-04-08T16:55:22.097Z,13.82
2023-04-08T17:24:21.362Z,14.07
2023-04-08T17:30:35.306Z,14.12
2023-04-08T17:36:37.745Z,14.02
2023-04-08T17:42:32.570Z,14.03
2023-04-08T17:45:22.275Z,13.89
2023-04-08T17:47:52.483Z,13.84
2023-04-08T17:50:22.584Z,13.71
2023-04-08T17:52:52.711Z,13.47
2023-04-08T17:55:27.624Z,13.22
2023-04-08T17:57:57.675Z,13.36
2023-04-08T18:00:27.886Z,13.32
2023-04-08T18:03:16.759Z,13.41
2023-04-08T18:05:50.576Z,13.47
2023-04-08T18:08:29.914Z,13.06
2023-04-08T18:11:00.127Z,13.10
2023-04-08T18:13:32.012Z,13.18
2023-04-08T18:15:59.725Z,13.28
2023-04-08T18:18:37.749Z,13.41
2023-04-08T18:21:10.118Z,13.08
2023-04-08T18:24:33.015Z,13.09
2023-04-08T18:27:04.392Z,13.31
2023-04-08T18:29:37.460Z,12.73
2023-04-08T18:32:05.315Z,13.05
2023-04-08T18:34:40.660Z,13.13
2023-04-08T18:37:11.355Z,13.18
2023-04-08T18:39:41.684Z,13.41
2023-04-08T18:42:13.029Z,13.55
2023-04-08T18:44:40.697Z,13.54
2023-04-08T18:53:29.487Z,13.61
2023-04-08T18:59:03.761Z,13.30
2023-04-08T19:01:36.291Z,13.19
2023-04-08T19:04:03.846Z,12.96
2023-04-08T19:06:33.817Z,13.04
2023-04-08T19:09:01.664Z,13.00
2023-04-08T19:11:30.554Z,13.18
2023-04-08T19:13:58.023Z,12.92
2023-04-08T19:16:25.893Z,12.87
2023-04-08T19:18:53.776Z,12.91
2023-04-08T19:21:21.870Z,12.90
2023-04-08T19:23:49.797Z,12.96
2023-04-08T19:26:17.562Z,12.94
2023-04-08T19:28:46.294Z,12.92
2023-04-08T19:31:18.247Z,12.82
2023-04-08T19:33:46.175Z,12.81
2023-04-08T19:36:13.795Z,12.72
2023-04-08T19:38:42.196Z,12.50
2023-04-08T19:41:11.620Z,11.99
2023-04-08T19:46:23.192Z,11.98
2023-04-08T19:48:51.090Z,12.24
2023-04-08T19:51:22.510Z,12.62
2023-04-08T19:53:52.634Z,12.85
2023-04-08T19:56:20.236Z,12.72
2023-04-08T19:58:48.452Z,12.69
2023-04-08T20:01:15.890Z,12.49
2023-04-08T20:03:50.521Z,12.44
2023-04-08T20:06:18.934Z,12.65
2023-04-08T20:08:46.808Z,12.61
2023-04-08T20:11:14.988Z,12.46
2023-04-08T20:13:42.511Z,12.77
2023-04-08T20:16:10.307Z,12.78
2023-04-08T20:18:38.172Z,12.86
2023-04-08T20:21:07.412Z,12.97
2023-04-08T20:23:35.253Z,13.04
2023-04-08T20:26:02.911Z,12.96
2023-04-08T20:28:30.634Z,12.89
2023-04-08T20:30:58.606Z,12.78
2023-04-08T20:33:30.735Z,12.67
2023-04-08T20:35:58.049Z,12.62
2023-04-08T20:38:25.814Z,12.74
2023-04-08T20:40:53.192Z,12.81
2023-04-08T20:43:20.493Z,12.82
2023-04-08T20:45:47.894Z,12.89
2023-04-08T20:48:16.791Z,12.81
2023-04-08T20:50:48.364Z,12.77
2023-04-08T20:53:17.278Z,12.83
2023-04-08T20:55:48.061Z,12.77
2023-04-08T20:58:16.315Z,12.72
2023-04-08T21:00:43.935Z,12.83
2023-04-08T21:03:11.375Z,12.84
2023-04-08T21:05:38.857Z,12.88
2023-04-08T21:08:06.490Z,12.90
2023-04-08T21:10:35.017Z,12.71
2023-04-08T21:13:02.355Z,12.78
2023-04-08T21:15:29.875Z,12.68
2023-04-08T21:17:57.353Z,12.76
2023-04-08T21:20:24.811Z,12.55
2023-04-08T21:22:52.179Z,12.56
2023-04-08T21:25:19.624Z,12.60
2023-04-08T21:27:47.097Z,12.59
2023-04-08T21:30:17.124Z,12.44
2023-04-08T21:32:51.774Z,12.48
2023-04-08T21:35:19.483Z,12.60
2023-04-08T21:37:51.336Z,12.58
2023-04-08T21:40:19.034Z,12.44
2023-04-08T21:42:46.572Z,12.29
2023-04-08T21:45:15.340Z,12.43
2023-04-08T21:47:43.374Z,12.32
2023-04-08T21:50:11.003Z,12.36
2023-04-08T21:52:50.541Z,12.34
2023-04-08T21:55:20.952Z,12.35
2023-04-08T21:57:49.117Z,12.28
2023-04-08T22:00:16.816Z,12.28
2023-04-08T22:02:45.562Z,12.36
2023-04-08T22:05:13.216Z,12.57
2023-04-08T22:07:40.896Z,12.42
2023-04-08T22:10:08.608Z,12.29
2023-04-08T22:12:36.298Z,12.32
2023-04-08T22:15:03.818Z,12.21
2023-04-08T22:17:33.722Z,12.32
2023-04-08T22:20:01.198Z,12.42
2023-04-08T22:22:28.534Z,12.19
2023-04-08T22:24:55.870Z,12.47
2023-04-08T22:27:23.397Z,12.22
2023-04-08T22:29:51.129Z,11.99
2023-04-08T22:32:18.757Z,11.85
2023-04-08T22:34:46.629Z,11.79
2023-04-08T22:37:14.182Z,11.31
2023-04-08T22:39:41.849Z,11.10
2023-04-08T22:42:09.444Z,10.92
2023-04-08T22:44:36.866Z,10.87
2023-04-08T22:47:04.402Z,10.92
2023-04-08T22:49:34.815Z,10.90
2023-04-08T22:52:02.335Z,11.07
2023-04-08T22:54:29.747Z,11.17
2023-04-08T22:56:58.004Z,11.27
2023-04-08T22:59:25.637Z,11.35
2023-04-08T23:01:53.354Z,11.29
2023-04-08T23:04:21.538Z,11.27
2023-04-08T23:06:49.019Z,11.40
2023-04-08T23:09:16.699Z,11.11
2023-04-08T23:11:44.202Z,11.11
2023-04-08T23:14:11.932Z,11.20
2023-04-08T23:16:39.499Z,11.39
2023-04-08T23:19:07.117Z,11.30
2023-04-08T23:21:34.751Z,11.30
2023-04-08T23:24:02.413Z,11.24
2023-04-08T23:26:29.908Z,10.76
2023-04-08T23:28:57.664Z,10.39
2023-04-08T23:31:25.419Z,10.33
2023-04-08T23:33:52.988Z,10.30
2023-04-08T23:36:20.439Z,10.42
2023-04-08T23:38:47.859Z,10.64
2023-04-08T23:41:15.738Z,11.01
2023-04-08T23:43:43.956Z,10.98
2023-04-08T23:46:11.522Z,11.23
2023-04-08T23:48:39.127Z,11.35
2023-04-08T23:51:07.268Z,11.46
2023-04-08T23:53:34.865Z,11.45
2023-04-08T23:56:08.935Z,11.48
2023-04-08T23:58:36.570Z,11.66
